Time,TemperatureF,DewpointF,PressureIn,WindDirection,WindDirectionDegrees,WindSpeedMPH,WindSpeedGustMPH,Humidity,HourlyPrecipIn,Conditions,Clouds,dailyrainin,SolarRadiationWatts/m^2,SoftwareType,DateUTC
2013-04-25 00:01:00,53.2,50.0,29.95,NW,307,0.0,5.0,89,0.00,,,0.00,0000,Weather View 32 v70,2013-04-25 07:01:00,
2013-04-25 00:06:00,53.3,50.1,29.96,NW,307,0.0,5.0,89,0.00,,,0.00,0000,Weather View 32 v70,2013-04-25 07:06:00,
2013-04-25 00:11:00,53.2,49.7,29.95,WNW,298,0.0,5.0,88,0.00,,,0.00,0000,Weather View 32 v70,2013-04-25 07:11:00,
2013-04-25 00:16:00,53.3,49.8,29.96,WNW,298,0.0,5.0,88,0.00,,,0.00,0000,Weather View 32 v70,2013-04-25 07:16:00,
2013-04-25 00:21:00,53.3,49.8,29.96,WNW,297,0.0,5.0,88,0.00,,,0.00,0000,Weather View 32 v70,2013-04-25 07:21:00,
2013-04-25 00:26:00,53.3,49.8,29.96,WNW,297,0.0,5.0,88,0.00,,,0.00,0000,Weather View 32 v70,2013-04-25 07:26:00,
2013-04-25 00:31:00,53.3,49.8,29.96,WNW,296,0.0,5.0,88,0.00,,,0.00,0000,Weather View 32 v70,2013-04-25 07:31:00,
2013-04-25 00:36:00,53.3,49.8,29.96,WNW,297,0.0,5.0,88,0.00,,,0.00,0000,Weather View 32 v70,2013-04-25 07:36:00,
2013-04-25 00:41:00,53.2,49.7,29.96,WNW,296,0.0,5.0,88,0.00,,,0.00,0000,Weather View 32 v70,2013-04-25 07:41:00,
2013-04-25 00:46:00,53.1,49.6,29.95,WNW,296,0.0,4.0,88,0.00,,,0.00,0000,Weather View 32 v70,2013-04-25 07:46:00,
2013-04-25 00:51:00,53.0,49.5,29.95,WNW,296,0.0,2.0,88,0.00,,,0.00,0000,Weather View 32 v70,2013-04-25 07:51:00,
2013-04-25 00:56:00,52.8,49.3,29.95,WNW,297,0.0,2.0,88,0.00,,,0.00,0000,Weather View 32 v70,2013-04-25 07:56:00,
2013-04-25 01:01:00,52.6,49.1,29.95,WNW,297,0.0,1.0,88,0.00,,,0.00,0000,Weather View 32 v70,2013-04-25 08:01:00,
2013-04-25 01:06:00,52.2,48.7,29.94,WNW,297,0.0,1.0,88,0.00,,,0.00,0000,Weather View 32 v70,2013-04-25 08:06:00,
2013-04-25 01:11:00,51.9,48.8,29.93,WNW,296,0.0,1.0,89,0.00,,,0.00,0000,Weather View 32 v70,2013-04-25 08:11:00,
2013-04-25 01:16:00,51.8,48.7,29.93,WNW,297,0.0,1.0,89,0.00,,,0.00,0000,Weather View 32 v70,2013-04-25 08:16:00,
2013-04-25 01:21:00,51.7,48.6,29.93,WNW,297,0.0,1.0,89,0.00,,,0.00,0000,Weather View 32 v70,2013-04-25 08:21:00,
2013-04-25 01:26:00,51.6,48.5,29.93,WNW,297,0.0,0.0,89,0.00,,,0.00,0000,Weather View 32 v70,2013-04-25 08:26:00,
2013-04-25 01:31:00,51.3,48.2,29.93,WNW,297,0.0,0.0,89,0.00,,,0.00,0000,Weather View 32 v70,2013-04-25 08:31:00,
2013-04-25 01:36:00,50.9,47.8,29.93,WNW,296,0.0,0.0,89,0.00,,,0.00,0000,Weather View 32 v70,2013-04-25 08:36:00,
2013-04-25 01:41:00,50.9,48.1,29.93,WNW,297,0.0,0.0,90,0.00,,,0.00,0000,Weather View 32 v70,2013-04-25 08:41:00,
2013-04-25 01:46:00,50.9,48.1,29.93,WNW,296,0.0,0.0,90,0.00,,,0.00,0000,Weather View 32 v70,2013-04-25 08:46:00,
2013-04-25 01:51:00,50.7,47.9,29.93,WNW,297,0.0,0.0,90,0.00,,,0.00,0000,Weather View 32 v70,2013-04-25 08:51:00,
2013-04-25 01:56:00,50.5,47.7,29.93,WNW,297,0.0,0.0,90,0.00,,,0.00,0000,Weather View 32 v70,2013-04-25 08:56:00,
2013-04-25 02:01:00,50.7,47.9,29.93,WNW,297,0.0,1.0,90,0.00,,,0.00,0000,Weather View 32 v70,2013-04-25 09:01:00,
2013-04-25 02:06:00,50.9,48.1,29.93,WNW,296,0.0,1.0,90,0.00,,,0.00,0000,Weather View 32 v70,2013-04-25 09:06:00,
2013-04-25 02:11:00,51.2,48.7,29.93,WNW,297,0.0,1.0,91,0.00,,,0.00,0000,Weather View 32 v70,2013-04-25 09:11:00,
2013-04-25 02:16:00,51.4,48.6,29.93,WNW,297,0.0,1.0,90,0.00,,,0.00,0000,Weather View 32 v70,2013-04-25 09:16:00,
2013-04-25 02:21:00,51.5,48.7,29.93,WNW,296,0.0,1.0,90,0.00,,,0.00,0000,Weather View 32 v70,2013-04-25 09:21:00,
2013-04-25 02:26:00,50.9,48.1,29.93,WNW,297,0.0,1.0,90,0.00,,,0.00,0000,Weather View 32 v70,2013-04-25 09:26:00,
2013-04-25 02:31:00,50.3,47.5,29.93,WNW,296,0.0,1.0,90,0.00,,,0.00,0000,Weather View 32 v70,2013-04-25 09:31:00,
2013-04-25 02:36:00,50.1,47.3,29.93,WNW,303,0.0,2.0,90,0.00,,,0.00,0000,Weather View 32 v70,2013-04-25 09:36:00,
2013-04-25 02:41:00,50.1,47.6,29.93,NW,304,0.0,2.0,91,0.00,,,0.00,0000,Weather View 32 v70,2013-04-25 09:41:00,
2013-04-25 02:46:00,50.2,47.7,29.93,NW,306,0.0,2.0,91,0.00,,,0.00,0000,Weather View 32 v70,2013-04-25 09:46:00,
2013-04-25 02:51:00,50.3,47.8,29.93,NW,306,0.0,2.0,91,0.00,,,0.00,0000,Weather View 32 v70,2013-04-25 09:51:00,
2013-04-25 02:56:00,50.3,47.8,29.93,NW,306,0.0,2.0,91,0.00,,,0.00,0000,Weather View 32 v70,2013-04-25 09:56:00,
2013-04-25 03:01:00,50.4,47.9,29.93,NW,306,0.0,2.0,91,0.00,,,0.00,0000,Weather View 32 v70,2013-04-25 10:01:00,
2013-04-25 03:06:00,50.4,47.9,29.93,NW,306,0.0,2.0,91,0.00,,,0.00,0000,Weather View 32 v70,2013-04-25 10:06:00,
2013-04-25 03:11:00,50.5,48.0,29.93,NW,307,0.0,2.0,91,0.00,,,0.00,0000,Weather View 32 v70,2013-04-25 10:11:00,
2013-04-25 03:16:00,50.6,48.1,29.94,NW,307,0.0,2.0,91,0.00,,,0.00,0000,Weather View 32 v70,2013-04-25 10:16:00,
2013-04-25 03:21:00,50.8,48.3,29.94,NW,307,0.0,2.0,91,0.00,,,0.00,0000,Weather View 32 v70,2013-04-25 10:21:00,
2013-04-25 03:26:00,50.9,48.1,29.94,NW,307,0.0,2.0,90,0.00,,,0.00,0000,Weather View 32 v70,2013-04-25 10:26:00,
2013-04-25 03:31:00,50.8,48.0,29.94,NW,307,0.0,2.0,90,0.00,,,0.00,0000,Weather View 32 v70,2013-04-25 10:31:00,
2013-04-25 03:36:00,50.7,47.9,29.94,NW,307,0.0,2.0,90,0.00,,,0.00,0000,Weather View 32 v70,2013-04-25 10:36:00,
2013-04-25 03:41:00,50.7,47.9,29.95,NW,307,0.0,2.0,90,0.00,,,0.00,0000,Weather View 32 v70,2013-04-25 10:41:00,
2013-04-25 03:46:00,50.5,47.7,29.95,NW,307,0.0,2.0,90,0.00,,,0.00,0000,Weather View 32 v70,2013-04-25 10:46:00,
2013-04-25 03:51:00,50.5,48.0,29.95,NW,307,0.0,2.0,91,0.00,,,0.00,0000,Weather View 32 v70,2013-04-25 10:51:00,
2013-04-25 03:56:00,50.5,48.0,29.95,NW,307,0.0,2.0,91,0.00,,,0.00,0000,Weather View 32 v70,2013-04-25 10:56:00,
2013-04-25 04:01:00,50.6,48.1,29.95,NW,307,0.0,2.0,91,0.00,,,0.00,0000,Weather View 32 v70,2013-04-25 11:01:00,
2013-04-25 04:06:00,50.5,48.0,29.95,NW,307,0.0,2.0,91,0.00,,,0.00,0000,Weather View 32 v70,2013-04-25 11:06:00,
2013-04-25 04:11:00,50.5,48.0,29.96,NW,307,0.0,2.0,91,0.00,,,0.00,0000,Weather View 32 v70,2013-04-25 11:11:00,
2013-04-25 04:16:00,50.7,48.2,29.96,NW,307,0.0,0.0,91,0.00,,,0.00,0000,Weather View 32 v70,2013-04-25 11:16:00,
2013-04-25 04:21:00,50.7,48.2,29.96,NW,307,0.0,0.0,91,0.00,,,0.00,0000,Weather View 32 v70,2013-04-25 11:21:00,
2013-04-25 04:26:00,50.7,48.2,29.96,NW,307,0.0,1.0,91,0.00,,,0.00,0000,Weather View 32 v70,2013-04-25 11:26:00,
2013-04-25 04:31:00,50.8,48.3,29.96,NW,307,0.0,1.0,91,0.00,,,0.00,0000,Weather View 32 v70,2013-04-25 11:31:00,
2013-04-25 04:36:00,50.8,48.3,29.96,NW,307,0.0,1.0,91,0.00,,,0.00,0000,Weather View 32 v70,2013-04-25 11:36:00,
2013-04-25 04:41:00,50.8,48.3,29.96,NW,307,0.0,1.0,91,0.00,,,0.00,0000,Weather View 32 v70,2013-04-25 11:41:00,
2013-04-25 04:46:00,50.9,48.4,29.96,NW,307,0.0,1.0,91,0.00,,,0.00,0000,Weather View 32 v70,2013-04-25 11:46:00,
2013-04-25 04:51:00,51.0,48.5,29.96,NW,307,0.0,1.0,91,0.00,,,0.00,0000,Weather View 32 v70,2013-04-25 11:51:00,
2013-04-25 04:56:00,51.0,48.2,29.96,NW,307,0.0,1.0,90,0.00,,,0.00,0000,Weather View 32 v70,2013-04-25 11:56:00,
2013-04-25 05:01:00,51.1,48.6,29.96,NW,307,0.0,1.0,91,0.00,,,0.00,0000,Weather View 32 v70,2013-04-25 12:01:00,
2013-04-25 05:06:00,51.1,48.3,29.96,NW,307,0.0,1.0,90,0.00,,,0.00,0000,Weather View 32 v70,2013-04-25 12:06:00,
2013-04-25 05:11:00,51.2,48.7,29.96,NW,307,0.0,1.0,91,0.00,,,0.00,0000,Weather View 32 v70,2013-04-25 12:11:00,
2013-04-25 05:16:00,51.2,48.7,29.96,NW,307,0.0,1.0,91,0.00,,,0.00,0000,Weather View 32 v70,2013-04-25 12:16:00,
2013-04-25 05:21:00,51.3,48.8,29.96,NW,307,0.0,1.0,91,0.00,,,0.00,0000,Weather View 32 v70,2013-04-25 12:21:00,
2013-04-25 05:26:00,51.4,48.6,29.96,NW,307,0.0,1.0,90,0.00,,,0.00,0000,Weather View 32 v70,2013-04-25 12:26:00,
2013-04-25 05:31:00,51.4,48.6,29.96,NW,307,0.0,1.0,90,0.00,,,0.00,0000,Weather View 32 v70,2013-04-25 12:31:00,
2013-04-25 05:36:00,51.4,48.6,29.96,NW,307,0.0,1.0,90,0.00,,,0.00,0000,Weather View 32 v70,2013-04-25 12:36:00,
2013-04-25 05:41:00,51.4,48.6,29.96,NW,307,0.0,1.0,90,0.00,,,0.00,0000,Weather View 32 v70,2013-04-25 12:41:00,
2013-04-25 05:46:00,51.5,48.7,29.96,NW,307,0.0,0.0,90,0.00,,,0.00,0000,Weather View 32 v70,2013-04-25 12:46:00,
2013-04-25 05:51:00,51.5,48.7,29.96,NW,307,0.0,0.0,90,0.00,,,0.00,0000,Weather View 32 v70,2013-04-25 12:51:00,
2013-04-25 05:56:00,51.5,48.7,29.96,NW,307,0.0,0.0,90,0.00,,,0.00,0000,Weather View 32 v70,2013-04-25 12:56:00,
2013-04-25 06:01:00,51.6,48.8,29.96,NW,307,0.0,0.0,90,0.00,,,0.00,0000,Weather View 32 v70,2013-04-25 13:01:00,
2013-04-25 06:06:00,51.8,49.3,29.97,NW,307,0.0,0.0,91,0.00,,,0.00,0000,Weather View 32 v70,2013-04-25 13:06:00,
2013-04-25 06:11:00,51.7,48.9,29.97,NW,307,0.0,0.0,90,0.00,,,0.00,0000,Weather View 32 v70,2013-04-25 13:11:00,
2013-04-25 06:16:00,51.7,48.9,29.97,NW,307,0.0,0.0,90,0.00,,,0.00,0000,Weather View 32 v70,2013-04-25 13:16:00,
2013-04-25 06:21:00,51.9,49.1,29.97,NW,307,0.0,0.0,90,0.00,,,0.00,0000,Weather View 32 v70,2013-04-25 13:21:00,
2013-04-25 06:26:00,52.0,49.2,29.98,NW,307,0.0,0.0,90,0.00,,,0.00,0005,Weather View 32 v70,2013-04-25 13:26:00,
2013-04-25 06:31:00,52.0,49.2,29.98,NW,307,0.0,0.0,90,0.00,,,0.00,0007,Weather View 32 v70,2013-04-25 13:31:00,
2013-04-25 06:36:00,52.1,49.0,29.98,NW,307,0.0,0.0,89,0.00,,,0.00,0009,Weather View 32 v70,2013-04-25 13:36:00,
2013-04-25 06:41:00,52.1,49.0,29.98,NW,307,0.0,0.0,89,0.00,,,0.00,0011,Weather View 32 v70,2013-04-25 13:41:00,
2013-04-25 06:46:00,52.2,49.0,29.99,NW,307,0.0,0.0,89,0.00,,,0.00,0014,Weather View 32 v70,2013-04-25 13:46:00,
2013-04-25 06:51:00,52.3,48.8,29.99,NW,307,0.0,0.0,88,0.00,,,0.00,0016,Weather View 32 v70,2013-04-25 13:51:00,
2013-04-25 06:56:00,52.5,49.0,29.99,NW,307,0.0,0.0,88,0.00,,,0.00,0019,Weather View 32 v70,2013-04-25 13:56:00,
2013-04-25 07:01:00,52.6,49.1,29.99,NW,307,0.0,0.0,88,0.00,,,0.00,0023,Weather View 32 v70,2013-04-25 14:01:00,
2013-04-25 07:06:00,52.8,49.3,29.99,NW,307,0.0,0.0,88,0.00,,,0.00,0025,Weather View 32 v70,2013-04-25 14:06:00,
2013-04-25 07:11:00,52.9,49.1,30.00,NW,307,0.0,0.0,87,0.00,,,0.00,0030,Weather View 32 v70,2013-04-25 14:11:00,
2013-04-25 07:16:00,53.0,49.5,30.00,NW,307,0.0,0.0,88,0.00,,,0.00,0033,Weather View 32 v70,2013-04-25 14:16:00,
2013-04-25 07:21:00,53.1,49.6,30.00,NW,307,0.0,0.0,88,0.00,,,0.00,0037,Weather View 32 v70,2013-04-25 14:21:00,
2013-04-25 07:26:00,53.1,49.6,30.00,NW,307,0.0,0.0,88,0.00,,,0.00,0040,Weather View 32 v70,2013-04-25 14:26:00,
2013-04-25 07:31:00,53.4,49.9,30.00,NW,307,0.0,0.0,88,0.00,,,0.00,0047,Weather View 32 v70,2013-04-25 14:31:00,
2013-04-25 07:36:00,53.4,49.9,30.00,NW,307,0.0,0.0,88,0.00,,,0.00,0063,Weather View 32 v70,2013-04-25 14:36:00,
2013-04-25 07:41:00,53.6,49.8,30.00,NW,307,0.0,0.0,87,0.00,,,0.00,0081,Weather View 32 v70,2013-04-25 14:41:00,
2013-04-25 07:46:00,53.9,50.1,30.00,NW,307,0.0,0.0,87,0.00,,,0.00,0123,Weather View 32 v70,2013-04-25 14:46:00,
2013-04-25 07:51:00,55.0,50.9,30.01,NW,307,0.0,0.0,86,0.00,,,0.00,0243,Weather View 32 v70,2013-04-25 14:51:00,
2013-04-25 07:56:00,55.9,51.1,30.01,NW,307,0.0,0.0,84,0.00,,,0.00,0250,Weather View 32 v70,2013-04-25 14:56:00,
2013-04-25 08:01:00,56.0,50.6,30.01,NW,307,0.0,0.0,82,0.00,,,0.00,0206,Weather View 32 v70,2013-04-25 15:01:00,
2013-04-25 08:06:00,56.6,50.8,30.01,NW,307,0.0,0.0,81,0.00,,,0.00,0323,Weather View 32 v70,2013-04-25 15:06:00,
2013-04-25 08:11:00,57.0,50.5,30.01,NW,307,0.0,0.0,79,0.00,,,0.00,0253,Weather View 32 v70,2013-04-25 15:11:00,
2013-04-25 08:16:00,58.5,50.9,30.01,NW,307,0.0,0.0,76,0.00,,,0.00,0297,Weather View 32 v70,2013-04-25 15:16:00,
2013-04-25 08:21:00,59.0,51.8,30.02,NW,307,1.0,1.0,77,0.00,,,0.00,0250,Weather View 32 v70,2013-04-25 15:21:00,
2013-04-25 08:26:00,59.5,51.9,30.02,NW,307,0.0,2.0,76,0.00,,,0.00,0417,Weather View 32 v70,2013-04-25 15:26:00,
2013-04-25 08:31:00,60.7,52.3,30.01,NW,307,0.0,2.0,74,0.00,,,0.00,0431,Weather View 32 v70,2013-04-25 15:31:00,
2013-04-25 08:36:00,60.9,52.2,30.02,NW,307,0.0,2.0,73,0.00,,,0.00,0464,Weather View 32 v70,2013-04-25 15:36:00,
2013-04-25 08:41:00,61.0,51.5,30.02,NW,307,0.0,2.0,71,0.00,,,0.00,0455,Weather View 32 v70,2013-04-25 15:41:00,
2013-04-25 08:46:00,60.7,50.0,30.02,SSE,156,0.0,2.0,68,0.00,,,0.00,0441,Weather View 32 v70,2013-04-25 15:46:00,
2013-04-25 08:51:00,60.4,50.5,30.02,SSE,157,0.0,2.0,70,0.00,,,0.00,0452,Weather View 32 v70,2013-04-25 15:51:00,
2013-04-25 08:56:00,61.1,50.4,30.02,SE,146,0.0,3.0,68,0.00,,,0.00,0461,Weather View 32 v70,2013-04-25 15:56:00,
2013-04-25 09:01:00,60.4,49.0,30.02,SE,146,0.0,5.0,66,0.00,,,0.00,0475,Weather View 32 v70,2013-04-25 16:01:00,
2013-04-25 09:06:00,60.1,48.7,30.02,SE,146,0.0,5.0,66,0.00,,,0.00,0494,Weather View 32 v70,2013-04-25 16:06:00,
2013-04-25 09:11:00,61.3,50.2,30.02,SE,146,0.0,5.0,67,0.00,,,0.00,0515,Weather View 32 v70,2013-04-25 16:11:00,
2013-04-25 09:16:00,61.4,49.1,30.02,SSE,147,0.0,5.0,64,0.00,,,0.00,0524,Weather View 32 v70,2013-04-25 16:16:00,
2013-04-25 09:21:00,61.8,50.3,30.02,SSE,148,0.0,5.0,65,0.00,,,0.00,0536,Weather View 32 v70,2013-04-25 16:21:00,
2013-04-25 09:26:00,61.8,49.5,30.03,SE,136,0.0,5.0,64,0.00,,,0.00,0555,Weather View 32 v70,2013-04-25 16:26:00,
2013-04-25 09:31:00,62.2,49.4,30.03,SE,136,0.0,5.0,63,0.00,,,0.00,0570,Weather View 32 v70,2013-04-25 16:31:00,
2013-04-25 09:36:00,63.3,49.6,30.03,SE,136,0.0,5.0,61,0.00,,,0.00,0589,Weather View 32 v70,2013-04-25 16:36:00,
2013-04-25 09:41:00,63.2,50.8,30.03,SE,136,0.0,5.0,64,0.00,,,0.00,0605,Weather View 32 v70,2013-04-25 16:41:00,
2013-04-25 09:46:00,63.8,50.1,30.03,SE,136,0.0,5.0,61,0.00,,,0.00,0615,Weather View 32 v70,2013-04-25 16:46:00,
2013-04-25 09:51:00,63.2,49.5,30.03,SE,136,0.0,5.0,61,0.00,,,0.00,0629,Weather View 32 v70,2013-04-25 16:51:00,
2013-04-25 09:56:00,62.6,49.8,30.03,SE,136,2.0,5.0,63,0.00,,,0.00,0643,Weather View 32 v70,2013-04-25 16:56:00,
2013-04-25 10:01:00,63.9,49.7,30.03,ESE,112,0.0,3.0,60,0.00,,,0.00,0659,Weather View 32 v70,2013-04-25 17:01:00,
2013-04-25 10:06:00,65.6,52.2,30.03,ESE,111,0.0,3.0,62,0.00,,,0.00,0679,Weather View 32 v70,2013-04-25 17:06:00,
2013-04-25 10:11:00,65.0,49.8,30.03,ESE,112,0.0,3.0,58,0.00,,,0.00,0689,Weather View 32 v70,2013-04-25 17:11:00,
2013-04-25 10:16:00,64.9,49.7,30.03,ESE,112,0.0,3.0,58,0.00,,,0.00,0705,Weather View 32 v70,2013-04-25 17:16:00,
2013-04-25 10:21:00,65.7,50.0,30.03,ESE,111,0.0,3.0,57,0.00,,,0.00,0719,Weather View 32 v70,2013-04-25 17:21:00,
2013-04-25 10:26:00,66.3,50.6,30.03,ESE,111,0.0,3.0,57,0.00,,,0.00,0728,Weather View 32 v70,2013-04-25 17:26:00,
2013-04-25 10:31:00,66.2,50.5,30.04,ESE,111,0.0,3.0,57,0.00,,,0.00,0758,Weather View 32 v70,2013-04-25 17:31:00,
2013-04-25 10:36:00,65.9,50.2,30.04,NNE,17,0.0,3.0,57,0.00,,,0.00,0793,Weather View 32 v70,2013-04-25 17:36:00,
2013-04-25 10:41:00,66.4,49.7,30.04,North,355,0.0,3.0,55,0.00,,,0.00,0828,Weather View 32 v70,2013-04-25 17:41:00,
2013-04-25 10:46:00,67.6,50.8,30.04,NNW,348,0.0,3.0,55,0.00,,,0.00,0902,Weather View 32 v70,2013-04-25 17:46:00,
2013-04-25 10:51:00,67.0,49.8,30.04,NNW,341,0.0,3.0,54,0.00,,,0.00,0858,Weather View 32 v70,2013-04-25 17:51:00,
2013-04-25 10:56:00,67.0,50.3,30.04,NNW,341,0.0,3.0,55,0.00,,,0.00,1000,Weather View 32 v70,2013-04-25 17:56:00,
2013-04-25 11:01:00,67.2,49.9,30.04,NW,309,0.0,4.0,54,0.00,,,0.00,1021,Weather View 32 v70,2013-04-25 18:01:00,
2013-04-25 11:06:00,67.9,51.6,30.04,NNW,345,0.0,7.0,56,0.00,,,0.00,0947,Weather View 32 v70,2013-04-25 18:06:00,
2013-04-25 11:11:00,68.6,50.7,30.04,NNW,333,0.0,7.0,53,0.00,,,0.00,0661,Weather View 32 v70,2013-04-25 18:11:00,
2013-04-25 11:16:00,67.2,49.9,30.04,NNW,333,0.0,7.0,54,0.00,,,0.00,0292,Weather View 32 v70,2013-04-25 18:16:00,
2013-04-25 11:21:00,66.1,49.9,30.04,NW,318,0.0,7.0,56,0.00,,,0.00,0348,Weather View 32 v70,2013-04-25 18:21:00,
2013-04-25 11:26:00,66.1,49.9,30.04,NW,319,0.0,7.0,56,0.00,,,0.00,0339,Weather View 32 v70,2013-04-25 18:26:00,
2013-04-25 11:31:00,67.3,51.0,30.04,NW,319,0.0,7.0,56,0.00,,,0.00,0420,Weather View 32 v70,2013-04-25 18:31:00,
2013-04-25 11:36:00,66.7,50.0,30.04,NW,318,0.0,7.0,55,0.00,,,0.00,0429,Weather View 32 v70,2013-04-25 18:36:00,
2013-04-25 11:41:00,66.7,49.5,30.04,NW,318,0.0,7.0,54,0.00,,,0.00,0432,Weather View 32 v70,2013-04-25 18:41:00,
2013-04-25 11:46:00,67.2,50.9,30.04,NW,319,0.0,7.0,56,0.00,,,0.00,0680,Weather View 32 v70,2013-04-25 18:46:00,
2013-04-25 11:51:00,68.5,51.2,30.04,ESE,107,0.0,7.0,54,0.00,,,0.00,0733,Weather View 32 v70,2013-04-25 18:51:00,
2013-04-25 11:56:00,68.6,51.7,30.04,NNW,344,0.0,7.0,55,0.00,,,0.00,1100,Weather View 32 v70,2013-04-25 18:56:00,
2013-04-25 12:01:00,69.7,50.7,30.04,NW,325,0.0,7.0,51,0.00,,,0.00,1051,Weather View 32 v70,2013-04-25 19:01:00,
2013-04-25 12:06:00,69.5,50.5,30.03,SE,132,0.0,7.0,51,0.00,,,0.00,0956,Weather View 32 v70,2013-04-25 19:06:00,
2013-04-25 12:11:00,68.5,50.6,30.03,West,264,0.0,7.0,53,0.00,,,0.00,0914,Weather View 32 v70,2013-04-25 19:11:00,
2013-04-25 12:16:00,69.1,51.2,30.03,NNE,18,0.0,5.0,53,0.00,,,0.00,0919,Weather View 32 v70,2013-04-25 19:16:00,
2013-04-25 12:21:00,70.5,52.5,30.02,NNW,348,0.0,4.0,53,0.00,,,0.00,0817,Weather View 32 v70,2013-04-25 19:21:00,
2013-04-25 12:26:00,69.3,49.8,30.02,NNW,346,0.0,4.0,50,0.00,,,0.00,0817,Weather View 32 v70,2013-04-25 19:26:00,
2013-04-25 12:31:00,69.2,51.3,30.02,NW,319,0.0,4.0,53,0.00,,,0.00,0148,Weather View 32 v70,2013-04-25 19:31:00,
2013-04-25 12:36:00,69.6,51.7,30.02,NW,323,0.0,4.0,53,0.00,,,0.00,0162,Weather View 32 v70,2013-04-25 19:36:00,
2013-04-25 12:41:00,70.1,50.0,30.02,NW,323,0.0,4.0,49,0.00,,,0.00,0123,Weather View 32 v70,2013-04-25 19:41:00,
2013-04-25 12:46:00,69.8,49.7,30.02,NNW,336,0.0,4.0,49,0.00,,,0.00,0113,Weather View 32 v70,2013-04-25 19:46:00,
2013-04-25 12:51:00,69.2,50.3,30.02,NNW,336,0.0,4.0,51,0.00,,,0.00,0111,Weather View 32 v70,2013-04-25 19:51:00,
2013-04-25 12:56:00,69.7,50.2,30.01,NNW,327,0.0,4.0,50,0.00,,,0.00,0109,Weather View 32 v70,2013-04-25 19:56:00,
2013-04-25 13:01:00,68.4,48.4,30.01,NW,317,0.0,4.0,49,0.00,,,0.00,0109,Weather View 32 v70,2013-04-25 20:01:00,
2013-04-25 13:06:00,69.0,49.5,30.01,NW,322,0.0,5.0,50,0.00,,,0.00,0104,Weather View 32 v70,2013-04-25 20:06:00,
2013-04-25 13:11:00,69.8,50.3,30.01,NW,315,0.0,5.0,50,0.00,,,0.00,0134,Weather View 32 v70,2013-04-25 20:11:00,
2013-04-25 13:16:00,68.7,49.3,30.01,NW,315,0.0,5.0,50,0.00,,,0.00,0104,Weather View 32 v70,2013-04-25 20:16:00,
2013-04-25 13:21:00,69.3,48.7,30.01,NNW,328,0.0,5.0,48,0.00,,,0.00,0105,Weather View 32 v70,2013-04-25 20:21:00,
2013-04-25 13:26:00,68.7,48.2,30.02,WNW,303,0.0,5.0,48,0.00,,,0.00,0102,Weather View 32 v70,2013-04-25 20:26:00,
2013-04-25 13:31:00,68.8,49.3,30.02,NNW,331,0.0,5.0,50,0.00,,,0.00,0102,Weather View 32 v70,2013-04-25 20:31:00,
2013-04-25 13:36:00,68.7,48.2,30.02,NNW,342,0.0,5.0,48,0.00,,,0.00,0188,Weather View 32 v70,2013-04-25 20:36:00,
2013-04-25 13:41:00,68.8,48.3,30.02,NW,304,0.0,5.0,48,0.00,,,0.00,0107,Weather View 32 v70,2013-04-25 20:41:00,
2013-04-25 13:46:00,68.8,48.3,30.02,NW,319,0.0,5.0,48,0.00,,,0.00,0102,Weather View 32 v70,2013-04-25 20:46:00,
2013-04-25 13:51:00,68.9,48.9,30.02,NW,319,0.0,5.0,49,0.00,,,0.00,0102,Weather View 32 v70,2013-04-25 20:51:00,
2013-04-25 13:56:00,68.9,49.4,30.02,NNW,341,0.0,5.0,50,0.00,,,0.00,0141,Weather View 32 v70,2013-04-25 20:56:00,
2013-04-25 14:01:00,68.7,48.2,30.02,NNW,340,0.0,5.0,48,0.00,,,0.00,0253,Weather View 32 v70,2013-04-25 21:01:00,
2013-04-25 14:06:00,68.1,48.2,30.03,NNW,348,0.0,2.0,49,0.00,,,0.00,0100,Weather View 32 v70,2013-04-25 21:06:00,
2013-04-25 14:11:00,68.3,48.3,30.03,NW,309,0.0,5.0,49,0.00,,,0.00,0098,Weather View 32 v70,2013-04-25 21:11:00,
2013-04-25 14:16:00,68.5,49.1,30.02,NW,309,0.0,5.0,50,0.00,,,0.00,0158,Weather View 32 v70,2013-04-25 21:16:00,
2013-04-25 14:21:00,68.3,47.8,30.03,NW,304,0.0,5.0,48,0.00,,,0.00,0098,Weather View 32 v70,2013-04-25 21:21:00,
2013-04-25 14:26:00,68.0,47.0,30.03,NW,312,1.0,5.0,47,0.00,,,0.00,0098,Weather View 32 v70,2013-04-25 21:26:00,
2013-04-25 14:31:00,68.1,48.2,30.03,NNW,344,0.0,5.0,49,0.00,,,0.00,0098,Weather View 32 v70,2013-04-25 21:31:00,
2013-04-25 14:36:00,68.0,48.1,30.03,WNW,296,0.0,5.0,49,0.00,,,0.00,0098,Weather View 32 v70,2013-04-25 21:36:00,
2013-04-25 14:41:00,68.1,47.6,30.03,NNW,329,0.0,5.0,48,0.00,,,0.00,0098,Weather View 32 v70,2013-04-25 21:41:00,
2013-04-25 14:46:00,68.1,47.6,30.03,NNW,331,0.0,5.0,48,0.00,,,0.00,0098,Weather View 32 v70,2013-04-25 21:46:00,
2013-04-25 14:51:00,69.3,49.3,30.03,NW,305,0.0,5.0,49,0.00,,,0.00,0098,Weather View 32 v70,2013-04-25 21:51:00,
2013-04-25 14:56:00,68.3,47.8,30.03,WNW,292,0.0,5.0,48,0.00,,,0.00,0142,Weather View 32 v70,2013-04-25 21:56:00,
2013-04-25 15:01:00,67.5,47.1,30.03,NW,314,0.0,5.0,48,0.00,,,0.00,0735,Weather View 32 v70,2013-04-25 22:01:00,
2013-04-25 15:06:00,66.6,47.3,30.03,NW,314,1.0,5.0,50,0.00,,,0.00,0123,Weather View 32 v70,2013-04-25 22:06:00,
2013-04-25 15:11:00,66.9,47.1,30.03,NW,318,0.0,5.0,49,0.00,,,0.00,0098,Weather View 32 v70,2013-04-25 22:11:00,
2013-04-25 15:16:00,66.9,47.1,30.03,NW,321,0.0,5.0,49,0.00,,,0.00,0102,Weather View 32 v70,2013-04-25 22:16:00,
2013-04-25 15:21:00,67.5,47.6,30.03,NW,322,0.0,5.0,49,0.00,,,0.00,0591,Weather View 32 v70,2013-04-25 22:21:00,
2013-04-25 15:26:00,67.6,47.7,30.03,NNW,338,0.0,5.0,49,0.00,,,0.00,0163,Weather View 32 v70,2013-04-25 22:26:00,
2013-04-25 15:31:00,67.3,47.4,30.03,NNW,337,0.0,5.0,49,0.00,,,0.00,0104,Weather View 32 v70,2013-04-25 22:31:00,
2013-04-25 15:36:00,67.7,48.9,30.03,NW,315,0.0,5.0,51,0.00,,,0.00,0149,Weather View 32 v70,2013-04-25 22:36:00,
2013-04-25 15:41:00,68.2,47.1,30.02,NNW,337,0.0,5.0,47,0.00,,,0.00,0100,Weather View 32 v70,2013-04-25 22:41:00,
2013-04-25 15:46:00,67.4,47.0,30.02,NNW,336,0.0,5.0,48,0.00,,,0.00,0113,Weather View 32 v70,2013-04-25 22:46:00,
2013-04-25 15:51:00,67.9,48.0,30.02,NNW,336,0.0,4.0,49,0.00,,,0.00,0151,Weather View 32 v70,2013-04-25 22:51:00,
2013-04-25 15:56:00,67.5,47.6,30.02,NNW,331,0.0,4.0,49,0.00,,,0.00,0339,Weather View 32 v70,2013-04-25 22:56:00,
2013-04-25 16:01:00,66.9,46.5,30.02,NNW,331,0.0,4.0,48,0.00,,,0.00,0248,Weather View 32 v70,2013-04-25 23:01:00,
2013-04-25 16:06:00,67.0,47.7,30.02,WNW,303,0.0,4.0,50,0.00,,,0.00,0320,Weather View 32 v70,2013-04-25 23:06:00,
2013-04-25 16:11:00,67.4,48.1,30.01,NW,307,0.0,4.0,50,0.00,,,0.00,0234,Weather View 32 v70,2013-04-25 23:11:00,
2013-04-25 16:16:00,67.5,47.6,30.01,NW,307,0.0,4.0,49,0.00,,,0.00,0206,Weather View 32 v70,2013-04-25 23:16:00,
2013-04-25 16:21:00,67.2,46.8,30.01,NW,307,0.0,4.0,48,0.00,,,0.00,0095,Weather View 32 v70,2013-04-25 23:21:00,
2013-04-25 16:26:00,67.3,48.0,30.01,NW,309,0.0,4.0,50,0.00,,,0.00,0102,Weather View 32 v70,2013-04-25 23:26:00,
2013-04-25 16:31:00,66.8,47.0,30.01,NW,309,0.0,4.0,49,0.00,,,0.00,0095,Weather View 32 v70,2013-04-25 23:31:00,
2013-04-25 16:36:00,67.0,47.7,30.01,NW,309,0.0,4.0,50,0.00,,,0.00,0098,Weather View 32 v70,2013-04-25 23:36:00,
2013-04-25 16:41:00,66.7,48.0,30.01,NW,309,0.0,4.0,51,0.00,,,0.00,0153,Weather View 32 v70,2013-04-25 23:41:00,
2013-04-25 16:46:00,66.8,47.5,30.01,NW,321,0.0,4.0,50,0.00,,,0.00,0091,Weather View 32 v70,2013-04-25 23:46:00,
2013-04-25 16:51:00,66.1,47.4,30.01,NW,325,0.0,4.0,51,0.00,,,0.00,0090,Weather View 32 v70,2013-04-25 23:51:00,
2013-04-25 16:56:00,65.9,47.7,30.01,NNW,329,0.0,2.0,52,0.00,,,0.00,0100,Weather View 32 v70,2013-04-25 23:56:00,
2013-04-25 17:01:00,66.1,47.9,30.01,NNW,327,0.0,2.0,52,0.00,,,0.00,0167,Weather View 32 v70,2013-04-26 00:01:00,
2013-04-25 17:06:00,65.9,47.7,30.01,NNW,327,0.0,2.0,52,0.00,,,0.00,0343,Weather View 32 v70,2013-04-26 00:06:00,
2013-04-25 17:11:00,65.4,47.8,30.01,NNW,328,0.0,2.0,53,0.00,,,0.00,0209,Weather View 32 v70,2013-04-26 00:11:00,
2013-04-25 17:16:00,65.3,47.7,30.01,NNW,328,0.0,2.0,53,0.00,,,0.00,0378,Weather View 32 v70,2013-04-26 00:16:00,
2013-04-25 17:21:00,65.5,48.9,30.01,NNW,328,0.0,2.0,55,0.00,,,0.00,0359,Weather View 32 v70,2013-04-26 00:21:00,
2013-04-25 17:26:00,65.6,49.0,30.01,NNW,328,0.0,2.0,55,0.00,,,0.00,0345,Weather View 32 v70,2013-04-26 00:26:00,
2013-04-25 17:31:00,65.2,48.1,30.01,NNW,328,0.0,2.0,54,0.00,,,0.00,0325,Weather View 32 v70,2013-04-26 00:31:00,
2013-04-25 17:36:00,64.8,48.2,30.01,NNW,327,0.0,2.0,55,0.00,,,0.00,0290,Weather View 32 v70,2013-04-26 00:36:00,
2013-04-25 17:41:00,64.3,47.7,30.01,NNW,327,0.0,2.0,55,0.00,,,0.00,0301,Weather View 32 v70,2013-04-26 00:41:00,
2013-04-25 17:46:00,63.6,47.6,30.01,NW,326,0.0,2.0,56,0.00,,,0.00,0139,Weather View 32 v70,2013-04-26 00:46:00,
2013-04-25 17:51:00,63.7,48.1,30.02,NNW,348,0.0,2.0,57,0.00,,,0.00,0171,Weather View 32 v70,2013-04-26 00:51:00,
2013-04-25 17:56:00,63.7,47.7,30.02,NNW,327,0.0,2.0,56,0.00,,,0.00,0158,Weather View 32 v70,2013-04-26 00:56:00,
2013-04-25 18:01:00,62.9,47.4,30.02,NNW,331,0.0,2.0,57,0.00,,,0.00,0132,Weather View 32 v70,2013-04-26 01:01:00,
2013-04-25 18:06:00,62.6,48.0,30.02,NNW,343,0.0,2.0,59,0.00,,,0.00,0139,Weather View 32 v70,2013-04-26 01:06:00,
2013-04-25 18:11:00,62.3,47.8,30.02,NNW,343,0.0,2.0,59,0.00,,,0.00,0065,Weather View 32 v70,2013-04-26 01:11:00,
2013-04-25 18:16:00,62.1,48.0,30.02,NNW,343,0.0,2.0,60,0.00,,,0.00,0054,Weather View 32 v70,2013-04-26 01:16:00,
2013-04-25 18:21:00,61.9,47.4,30.02,WNW,290,0.0,2.0,59,0.00,,,0.00,0051,Weather View 32 v70,2013-04-26 01:21:00,
2013-04-25 18:26:00,61.8,47.7,30.01,WNW,292,0.0,2.0,60,0.00,,,0.00,0046,Weather View 32 v70,2013-04-26 01:26:00,
2013-04-25 18:31:00,61.8,47.3,30.02,WNW,292,0.0,2.0,59,0.00,,,0.00,0042,Weather View 32 v70,2013-04-26 01:31:00,
2013-04-25 18:36:00,61.5,47.0,30.02,NW,326,0.0,2.0,59,0.00,,,0.00,0039,Weather View 32 v70,2013-04-26 01:36:00,
2013-04-25 18:41:00,61.2,46.7,30.02,NW,326,0.0,2.0,59,0.00,,,0.00,0033,Weather View 32 v70,2013-04-26 01:41:00,
2013-04-25 18:46:00,60.9,46.4,30.02,NNW,327,0.0,2.0,59,0.00,,,0.00,0030,Weather View 32 v70,2013-04-26 01:46:00,
2013-04-25 18:51:00,60.7,46.3,30.02,NNW,327,0.0,2.0,59,0.00,,,0.00,0026,Weather View 32 v70,2013-04-26 01:51:00,
2013-04-25 18:56:00,60.5,46.1,30.02,NW,326,0.0,2.0,59,0.00,,,0.00,0023,Weather View 32 v70,2013-04-26 01:56:00,
2013-04-25 19:01:00,60.2,45.8,30.02,NW,326,0.0,1.0,59,0.00,,,0.00,0019,Weather View 32 v70,2013-04-26 02:01:00,
2013-04-25 19:06:00,59.9,45.9,30.02,NNW,327,0.0,1.0,60,0.00,,,0.00,0018,Weather View 32 v70,2013-04-26 02:06:00,
2013-04-25 19:11:00,59.6,45.7,30.03,NNW,327,0.0,1.0,60,0.00,,,0.00,0012,Weather View 32 v70,2013-04-26 02:11:00,
2013-04-25 19:16:00,59.3,45.4,30.03,NW,326,0.0,2.0,60,0.00,,,0.00,0011,Weather View 32 v70,2013-04-26 02:16:00,
2013-04-25 19:21:00,59.0,45.5,30.03,NNW,327,0.0,2.0,61,0.00,,,0.00,0009,Weather View 32 v70,2013-04-26 02:21:00,
2013-04-25 19:26:00,58.9,45.4,30.03,NNW,327,0.0,2.0,61,0.00,,,0.00,0007,Weather View 32 v70,2013-04-26 02:26:00,
2013-04-25 19:31:00,58.5,45.5,30.03,NNW,327,0.0,2.0,62,0.00,,,0.00,0005,Weather View 32 v70,2013-04-26 02:31:00,
2013-04-25 19:36:00,57.9,45.8,30.03,NW,326,0.0,2.0,64,0.00,,,0.00,0000,Weather View 32 v70,2013-04-26 02:36:00,
2013-04-25 19:41:00,57.6,45.1,30.03,NNW,327,0.0,2.0,63,0.00,,,0.00,0000,Weather View 32 v70,2013-04-26 02:41:00,
2013-04-25 19:46:00,57.5,45.4,30.03,NNW,327,0.0,2.0,64,0.00,,,0.00,0000,Weather View 32 v70,2013-04-26 02:46:00,
2013-04-25 19:51:00,57.1,45.4,30.03,NW,326,0.0,2.0,65,0.00,,,0.00,0000,Weather View 32 v70,2013-04-26 02:51:00,
2013-04-25 19:56:00,56.9,45.2,30.03,NW,326,0.0,2.0,65,0.00,,,0.00,0000,Weather View 32 v70,2013-04-26 02:56:00,
2013-04-25 20:01:00,56.8,45.5,30.03,NNW,327,0.0,2.0,66,0.00,,,0.00,0000,Weather View 32 v70,2013-04-26 03:01:00,
2013-04-25 20:06:00,56.5,45.3,30.03,NNW,327,0.0,2.0,66,0.00,,,0.00,0000,Weather View 32 v70,2013-04-26 03:06:00,
2013-04-25 20:11:00,56.4,45.2,30.03,NW,326,0.0,2.0,66,0.00,,,0.00,0000,Weather View 32 v70,2013-04-26 03:11:00,
2013-04-25 20:16:00,56.2,45.0,30.03,NW,326,0.0,0.0,66,0.00,,,0.00,0000,Weather View 32 v70,2013-04-26 03:16:00,
2013-04-25 20:21:00,56.2,45.0,30.04,NNW,327,0.0,0.0,66,0.00,,,0.00,0000,Weather View 32 v70,2013-04-26 03:21:00,
2013-04-25 20:26:00,56.0,44.8,30.04,NNW,327,0.0,0.0,66,0.00,,,0.00,0000,Weather View 32 v70,2013-04-26 03:26:00,
2013-04-25 20:31:00,55.9,44.7,30.04,NNW,327,0.0,0.0,66,0.00,,,0.00,0000,Weather View 32 v70,2013-04-26 03:31:00,
2013-04-25 20:36:00,55.9,45.1,30.05,NNW,327,0.0,0.0,67,0.00,,,0.00,0000,Weather View 32 v70,2013-04-26 03:36:00,
2013-04-25 20:41:00,55.8,45.0,30.05,NNW,327,0.0,0.0,67,0.00,,,0.00,0000,Weather View 32 v70,2013-04-26 03:41:00,
2013-04-25 20:46:00,55.7,44.9,30.05,NW,326,0.0,0.0,67,0.00,,,0.00,0000,Weather View 32 v70,2013-04-26 03:46:00,
2013-04-25 20:51:00,55.4,45.0,30.05,NW,326,0.0,0.0,68,0.00,,,0.00,0000,Weather View 32 v70,2013-04-26 03:51:00,
2013-04-25 20:56:00,55.2,44.8,30.05,NNW,327,0.0,0.0,68,0.00,,,0.00,0000,Weather View 32 v70,2013-04-26 03:56:00,
2013-04-25 21:01:00,55.0,44.6,30.06,NW,326,0.0,0.0,68,0.00,,,0.00,0000,Weather View 32 v70,2013-04-26 04:01:00,
2013-04-25 21:06:00,54.9,44.5,30.06,NNW,327,0.0,0.0,68,0.00,,,0.00,0000,Weather View 32 v70,2013-04-26 04:06:00,
2013-04-25 21:11:00,54.7,44.7,30.06,NNW,327,0.0,0.0,69,0.00,,,0.00,0000,Weather View 32 v70,2013-04-26 04:11:00,
2013-04-25 21:16:00,54.6,44.6,30.07,NW,326,0.0,0.0,69,0.00,,,0.00,0000,Weather View 32 v70,2013-04-26 04:16:00,
2013-04-25 21:21:00,54.6,44.6,30.07,NNW,327,0.0,0.0,69,0.00,,,0.00,0000,Weather View 32 v70,2013-04-26 04:21:00,
2013-04-25 21:26:00,54.6,44.6,30.07,NNW,327,0.0,0.0,69,0.00,,,0.00,0000,Weather View 32 v70,2013-04-26 04:26:00,
2013-04-25 21:31:00,54.6,44.6,30.07,NNW,327,0.0,0.0,69,0.00,,,0.00,0000,Weather View 32 v70,2013-04-26 04:31:00,
2013-04-25 21:36:00,54.6,44.6,30.07,NNW,327,0.0,0.0,69,0.00,,,0.00,0000,Weather View 32 v70,2013-04-26 04:36:00,
2013-04-25 21:41:00,54.6,44.6,30.07,NW,326,0.0,0.0,69,0.00,,,0.00,0000,Weather View 32 v70,2013-04-26 04:41:00,
2013-04-25 21:46:00,54.6,45.0,30.07,NNW,327,0.0,0.0,70,0.00,,,0.00,0000,Weather View 32 v70,2013-04-26 04:46:00,
2013-04-25 21:51:00,54.5,45.3,30.08,NNW,327,0.0,0.0,71,0.00,,,0.00,0000,Weather View 32 v70,2013-04-26 04:51:00,
2013-04-25 21:56:00,54.5,44.9,30.07,NNW,327,0.0,0.0,70,0.00,,,0.00,0000,Weather View 32 v70,2013-04-26 04:56:00,
2013-04-25 22:01:00,54.1,44.9,30.08,NW,326,0.0,0.0,71,0.00,,,0.00,0000,Weather View 32 v70,2013-04-26 05:01:00,
2013-04-25 22:06:00,53.8,44.6,30.08,NNW,327,0.0,0.0,71,0.00,,,0.00,0000,Weather View 32 v70,2013-04-26 05:06:00,
2013-04-25 22:11:00,53.9,44.7,30.08,NNW,327,0.0,0.0,71,0.00,,,0.00,0000,Weather View 32 v70,2013-04-26 05:11:00,
2013-04-25 22:16:00,53.6,44.4,30.08,NNW,327,0.0,0.0,71,0.00,,,0.00,0000,Weather View 32 v70,2013-04-26 05:16:00,
2013-04-25 22:21:00,53.3,44.5,30.08,NNW,327,0.0,0.0,72,0.00,,,0.00,0000,Weather View 32 v70,2013-04-26 05:21:00,
2013-04-25 22:26:00,53.4,44.6,30.08,NNW,327,0.0,0.0,72,0.00,,,0.00,0000,Weather View 32 v70,2013-04-26 05:26:00,
2013-04-25 22:31:00,53.3,44.1,30.08,NNW,327,0.0,0.0,71,0.00,,,0.00,0000,Weather View 32 v70,2013-04-26 05:31:00,
2013-04-25 22:36:00,53.5,44.7,30.09,NNW,327,0.0,0.0,72,0.00,,,0.00,0000,Weather View 32 v70,2013-04-26 05:36:00,
2013-04-25 22:41:00,53.3,44.5,30.09,NNW,327,0.0,0.0,72,0.00,,,0.00,0000,Weather View 32 v70,2013-04-26 05:41:00,
2013-04-25 22:46:00,53.3,44.5,30.08,NNW,327,0.0,0.0,72,0.00,,,0.00,0000,Weather View 32 v70,2013-04-26 05:46:00,
2013-04-25 22:51:00,53.3,44.8,30.09,NNW,327,0.0,0.0,73,0.00,,,0.00,0000,Weather View 32 v70,2013-04-26 05:51:00,
2013-04-25 22:56:00,53.4,45.3,30.09,NNW,327,0.0,0.0,74,0.00,,,0.00,0000,Weather View 32 v70,2013-04-26 05:56:00,
2013-04-25 23:01:00,53.5,45.4,30.09,NW,326,0.0,0.0,74,0.00,,,0.00,0000,Weather View 32 v70,2013-04-26 06:01:00,
2013-04-25 23:06:00,53.2,44.8,30.09,NNW,327,0.0,0.0,73,0.00,,,0.00,0000,Weather View 32 v70,2013-04-26 06:06:00,
2013-04-25 23:11:00,53.0,44.2,30.09,NW,326,0.0,0.0,72,0.00,,,0.00,0000,Weather View 32 v70,2013-04-26 06:11:00,
2013-04-25 23:16:00,52.8,44.4,30.10,NW,326,0.0,0.0,73,0.00,,,0.00,0000,Weather View 32 v70,2013-04-26 06:16:00,
2013-04-25 23:21:00,52.5,44.1,30.10,NW,326,0.0,0.0,73,0.00,,,0.00,0000,Weather View 32 v70,2013-04-26 06:21:00,
2013-04-25 23:26:00,52.3,44.2,30.10,NNW,327,0.0,0.0,74,0.00,,,0.00,0000,Weather View 32 v70,2013-04-26 06:26:00,
2013-04-25 23:31:00,52.2,44.1,30.10,NNW,327,0.0,0.0,74,0.00,,,0.00,0000,Weather View 32 v70,2013-04-26 06:31:00,
2013-04-25 23:36:00,52.1,44.1,30.10,NW,326,0.0,0.0,74,0.00,,,0.00,0000,Weather View 32 v70,2013-04-26 06:36:00,
2013-04-25 23:41:00,52.1,44.1,30.10,NNW,327,0.0,0.0,74,0.00,,,0.00,0000,Weather View 32 v70,2013-04-26 06:41:00,
2013-04-25 23:46:00,51.9,43.9,30.10,NNW,327,0.0,0.0,74,0.00,,,0.00,0000,Weather View 32 v70,2013-04-26 06:46:00,
2013-04-25 23:51:00,52.0,44.0,30.10,NNW,327,0.0,0.0,74,0.00,,,0.00,0000,Weather View 32 v70,2013-04-26 06:51:00,
2013-04-25 23:56:00,52.0,44.3,30.10,NNW,327,0.0,0.0,75,0.00,,,0.00,0000,Weather View 32 v70,2013-04-26 06:56:00,